フィレンツェ の空港の天気 - METARとTAF

フィレンツェ・ペレトラ空港 ( LIRQ / FLR ) - イタリア フィレンツェ
飛行場実況気象(Metar)
観測時間03/28 23:20 CEST (03/28 21:20 UTC)
風向・風速静穏 0m/s
視程10km以上
天気現象
なし
気温9℃
湿度66%
気圧1023hPa
METARLIRQ 282120Z 00000KT CAVOK 09/03 Q1023
過去の天気等 Google飛行場航空写真 Wunderground天気予報

過去48時間のMETAR

飛行場予報(TAF)
発表時間: 3/28 19:00 CEST (3/28 17:00 UTC)
予報対象時間: 28日20時 CEST ~ 29日20時 CEST
風向・風速不定 3m/s
視程10km以上
なし
29日14時 CEST ~ 29日16時 CEST に徐々に
風向・風速北東 5m/s
TAF LIRQ 281700Z 2818/2918 VRB05KT CAVOK
BECMG 2912/2914 04010KT